Time;durP1;ratioP1;P1;durP2;ratioP2;P2;SDS_P1;SDS_P2;PMS_P1;PMS_P2;Temp;Humidity;BMP_temperature;BMP_pressure;BME280_temperature;BME280_humidity;BME280_pressure;Samples;Min_cycle;Max_cycle;Signal;HPM_P1;HPM_P2
2021/06/19 00:00:39;;;;;;;19.77;6.60;;;23.20;92.00;;;;;;5035096;28;20021;-63
2021/06/19 00:03:06;;;;;;;13.63;5.53;;;23.20;92.30;;;;;;5038388;28;20090;-62
2021/06/19 00:05:32;;;;;;;14.63;5.25;;;23.20;92.40;;;;;;5033723;28;20033;-63
2021/06/19 00:07:59;;;;;;;24.40;6.07;;;23.10;92.60;;;;;;5036560;28;20025;-62
2021/06/19 00:10:25;;;;;;;13.60;6.05;;;23.10;92.80;;;;;;5032451;28;20033;-63
2021/06/19 00:12:51;;;;;;;13.52;6.25;;;23.10;93.10;;;;;;5037102;28;20064;-62
2021/06/19 00:15:20;;;;;;;24.17;6.35;;;23.10;93.50;;;;;;5037671;28;20021;-63
2021/06/19 00:17:47;;;;;;;13.85;5.72;;;23.00;93.90;;;;;;5035845;28;20025;-63
2021/06/19 00:20:19;;;;;;;12.68;5.68;;;23.00;94.40;;;;;;5034168;28;20509;-61
2021/06/19 00:22:45;;;;;;;16.55;5.97;;;23.00;94.50;;;;;;5032576;28;20498;-63
2021/06/19 00:25:12;;;;;;;18.95;6.07;;;22.90;94.90;;;;;;5041369;28;20033;-62
2021/06/19 00:27:39;;;;;;;13.10;7.10;;;22.90;95.40;;;;;;5038847;28;20457;-62
2021/06/19 00:30:06;;;;;;;14.50;6.07;;;22.80;95.90;;;;;;5045289;28;20017;-64
2021/06/19 00:32:32;;;;;;;11.93;5.38;;;22.80;96.10;;;;;;5031172;28;20060;-62
2021/06/19 00:34:58;;;;;;;10.32;5.35;;;22.70;96.70;;;;;;5045449;28;20076;-62
2021/06/19 00:37:24;;;;;;;22.80;6.20;;;22.60;97.00;;;;;;5046932;28;20032;-62
2021/06/19 00:39:49;;;;;;;13.25;5.70;;;22.60;97.60;;;;;;5041957;28;20094;-61
2021/06/19 00:42:22;;;;;;;14.55;6.85;;;22.60;97.70;;;;;;5041381;28;20024;-61
2021/06/19 00:44:48;;;;;;;17.05;5.88;;;22.50;98.20;;;;;;5037995;28;20033;-62
2021/06/19 00:47:14;;;;;;;15.90;5.30;;;22.50;98.40;;;;;;5035171;28;20037;-59
2021/06/19 00:49:40;;;;;;;12.43;5.25;;;22.50;98.70;;;;;;5042186;28;20033;-62
2021/06/19 00:52:05;;;;;;;9.55;5.32;;;22.40;98.80;;;;;;5037828;28;20505;-60
2021/06/19 00:54:31;;;;;;;15.07;5.45;;;22.40;99.20;;;;;;5036056;28;20105;-61
2021/06/19 00:56:57;;;;;;;15.55;5.15;;;22.40;99.40;;;;;;5038045;28;20102;-62
2021/06/19 00:59:23;;;;;;;13.75;5.05;;;22.40;99.60;;;;;;5046497;28;20040;-59
2021/06/19 01:01:49;;;;;;;11.70;4.97;;;22.40;99.80;;;;;;5037320;28;20120;-62
2021/06/19 01:04:15;;;;;;;8.43;4.47;;;22.40;99.70;;;;;;5048259;28;20923;-59
2021/06/19 01:06:40;;;;;;;13.30;4.82;;;22.30;99.90;;;;;;5047332;28;20502;-61
2021/06/19 01:09:08;;;;;;;11.70;4.00;;;22.30;99.90;;;;;;5030281;28;20033;-63
2021/06/19 01:11:35;;;;;;;8.50;3.30;;;22.30;99.80;;;;;;5045881;28;20029;-61
2021/06/19 01:14:01;;;;;;;13.75;3.47;;;22.30;99.80;;;;;;5038635;28;20044;-62
2021/06/19 01:16:27;;;;;;;10.35;4.15;;;22.30;99.70;;;;;;5045636;28;20029;-62
2021/06/19 01:18:53;;;;;;;16.10;3.47;;;22.20;99.60;;;;;;5038621;28;20037;-61
2021/06/19 01:21:21;;;;;;;12.68;3.67;;;22.30;99.50;;;;;;5046452;28;20501;-63
2021/06/19 01:23:47;;;;;;;7.70;3.20;;;22.20;99.50;;;;;;5044160;28;20033;-62
2021/06/19 01:26:15;;;;;;;5.53;3.28;;;22.20;99.40;;;;;;5044740;28;20025;-63
2021/06/19 01:28:41;;;;;;;7.35;3.30;;;22.20;99.80;;;;;;5045059;28;20107;-62
2021/06/19 01:31:07;;;;;;;13.73;3.08;;;22.20;99.70;;;;;;5049336;28;20036;-63
2021/06/19 01:33:33;;;;;;;8.43;3.42;;;22.10;99.80;;;;;;5049026;28;20025;-61
2021/06/19 01:35:58;;;;;;;7.10;2.80;;;22.10;99.90;;;;;;5049643;28;20109;-63
2021/06/19 01:38:24;;;;;;;6.35;3.25;;;22.10;99.90;;;;;;5048339;28;20104;-63
2021/06/19 01:40:49;;;;;;;12.93;3.47;;;22.00;99.90;;;;;;5048874;28;20060;-62
2021/06/19 01:43:15;;;;;;;10.48;3.55;;;21.90;99.90;;;;;;5050084;28;20057;-62
2021/06/19 01:45:40;;;;;;;9.68;3.30;;;21.90;99.90;;;;;;5051355;28;20033;-63
2021/06/19 01:48:07;;;;;;;13.07;3.53;;;21.90;99.90;;;;;;5050962;28;20044;-63
2021/06/19 01:50:34;;;;;;;12.15;3.22;;;21.80;99.90;;;;;;5027717;28;20025;-61
2021/06/19 01:53:01;;;;;;;10.10;4.10;;;21.80;99.90;;;;;;5051247;28;20100;-63
2021/06/19 01:55:27;;;;;;;11.50;4.00;;;21.80;99.90;;;;;;5048410;28;20044;-61
2021/06/19 01:57:54;;;;;;;11.20;3.10;;;21.80;99.90;;;;;;5051424;28;21377;-63
2021/06/19 02:00:23;;;;;;;5.40;3.42;;;21.70;99.90;;;;;;5050475;28;20086;-62
2021/06/19 02:02:49;;;;;;;10.52;3.88;;;21.60;99.90;;;;;;5049449;28;20044;-63
2021/06/19 02:05:16;;;;;;;4.35;2.92;;;21.60;99.90;;;;;;5046213;28;20406;-63
2021/06/19 02:07:45;;;;;;;8.82;3.33;;;21.60;99.90;;;;;;5048609;28;20025;-62
2021/06/19 02:10:11;;;;;;;8.13;3.25;;;21.50;99.90;;;;;;5049177;28;20471;-61
2021/06/19 02:12:37;;;;;;;9.80;3.00;;;21.40;99.90;;;;;;5049420;28;20021;-63
2021/06/19 02:15:04;;;;;;;6.95;3.60;;;21.30;99.90;;;;;;5048568;28;20066;-62
2021/06/19 02:17:29;;;;;;;7.75;3.25;;;21.30;99.90;;;;;;5049780;28;20013;-61
2021/06/19 02:19:55;;;;;;;5.03;3.30;;;21.30;99.90;;;;;;5048325;28;20036;-61
2021/06/19 02:22:20;;;;;;;11.10;4.38;;;21.20;99.90;;;;;;5047024;28;20730;-62
2021/06/19 02:24:46;;;;;;;5.95;3.17;;;21.00;99.90;;;;;;5039678;28;20502;-63
2021/06/19 02:27:15;;;;;;;11.30;4.10;;;21.00;99.90;;;;;;5050374;28;20383;-62
2021/06/19 02:29:41;;;;;;;10.23;3.22;;;20.90;99.90;;;;;;5031932;28;20025;-62
2021/06/19 02:32:09;;;;;;;10.15;4.97;;;20.80;99.90;;;;;;5046663;28;20018;-63
2021/06/19 02:34:36;;;;;;;15.80;4.65;;;20.80;99.90;;;;;;5026201;28;20033;-61
2021/06/19 02:37:02;;;;;;;7.72;4.18;;;20.70;99.90;;;;;;5049037;28;20386;-63
2021/06/19 02:39:28;;;;;;;12.27;3.97;;;20.60;99.90;;;;;;5050006;28;20021;-62
2021/06/19 02:41:53;;;;;;;7.75;4.28;;;20.60;99.90;;;;;;5050212;28;20021;-63
2021/06/19 02:44:19;;;;;;;11.13;4.38;;;20.60;99.90;;;;;;5050380;28;20043;-63
2021/06/19 02:46:44;;;;;;;9.35;4.40;;;20.60;99.90;;;;;;5048082;28;20052;-63
2021/06/19 02:49:10;;;;;;;8.25;4.05;;;20.60;99.90;;;;;;5047527;28;20036;-63
2021/06/19 02:51:36;;;;;;;17.83;4.80;;;20.60;99.90;;;;;;5031575;28;20044;-63
2021/06/19 02:54:01;;;;;;;12.48;4.80;;;20.60;99.90;;;;;;5049801;28;20111;-62
2021/06/19 02:56:27;;;;;;;12.02;4.68;;;20.60;99.90;;;;;;5050994;28;20024;-62
2021/06/19 02:58:52;;;;;;;8.60;4.00;;;20.60;99.90;;;;;;5049397;28;20052;-62
2021/06/19 03:01:18;;;;;;;11.13;4.75;;;20.60;99.90;;;;;;5048521;28;20033;-63
2021/06/19 03:03:44;;;;;;;13.50;4.00;;;20.60;99.90;;;;;;5048791;28;20024;-62
2021/06/19 03:06:09;;;;;;;8.48;4.80;;;20.60;99.90;;;;;;5047641;28;20248;-63
2021/06/19 03:08:35;;;;;;;7.13;4.55;;;20.60;99.90;;;;;;5048444;28;20055;-62
2021/06/19 03:11:00;;;;;;;7.53;4.55;;;20.60;99.90;;;;;;5049117;28;20025;-63
2021/06/19 03:13:26;;;;;;;10.88;5.60;;;20.50;99.90;;;;;;5049501;28;20104;-58
2021/06/19 03:15:52;;;;;;;8.32;4.70;;;20.50;99.90;;;;;;5028627;28;20153;-62
2021/06/19 03:18:17;;;;;;;7.68;4.00;;;20.40;99.90;;;;;;5046587;28;20036;-62
2021/06/19 03:20:43;;;;;;;7.25;4.60;;;20.40;99.90;;;;;;5021245;28;20030;-62
2021/06/19 03:23:08;;;;;;;14.50;5.30;;;20.30;99.90;;;;;;5041875;28;20028;-62
2021/06/19 03:25:37;;;;;;;7.35;4.50;;;20.30;99.90;;;;;;5049648;28;20044;-62
2021/06/19 03:28:05;;;;;;;10.35;4.93;;;20.20;99.90;;;;;;5048549;28;20032;-62
2021/06/19 03:30:32;;;;;;;10.70;5.75;;;20.10;99.90;;;;;;5049907;28;20033;-62
2021/06/19 03:32:58;;;;;;;9.68;6.03;;;20.00;99.90;;;;;;5035670;28;20538;-62
2021/06/19 03:35:24;;;;;;;9.65;5.97;;;19.90;99.90;;;;;;5047623;28;20108;-61
2021/06/19 03:37:51;;;;;;;17.25;6.90;;;19.90;99.90;;;;;;5031998;28;20402;-62
2021/06/19 03:40:18;;;;;;;14.82;6.60;;;19.80;99.90;;;;;;5048239;28;20021;-63
2021/06/19 03:42:45;;;;;;;9.40;5.95;;;19.80;99.90;;;;;;5048859;28;20064;-63
2021/06/19 03:45:12;;;;;;;11.32;6.35;;;19.80;99.90;;;;;;5050033;28;20367;-64
2021/06/19 03:47:41;;;;;;;11.50;5.57;;;19.80;99.90;;;;;;5046662;28;20067;-63
2021/06/19 03:50:09;;;;;;;7.55;4.57;;;19.90;99.90;;;;;;5047132;28;20566;-62
2021/06/19 03:52:35;;;;;;;8.10;5.05;;;19.90;99.90;;;;;;5047143;28;20456;-62
2021/06/19 03:55:00;;;;;;;11.68;5.13;;;20.00;99.90;;;;;;5049770;28;20104;-63
2021/06/19 03:57:32;;;;;;;11.32;4.72;;;20.00;99.90;;;;;;5048265;28;20490;-56
2021/06/19 03:59:58;;;;;;;6.63;4.45;;;20.10;99.90;;;;;;5049766;28;20159;-62
2021/06/19 04:02:24;;;;;;;11.38;5.20;;;20.10;99.90;;;;;;5042841;28;20083;-63
2021/06/19 04:04:51;;;;;;;12.10;5.07;;;20.20;99.90;;;;;;5036920;28;20550;-62
2021/06/19 04:07:18;;;;;;;13.18;4.93;;;20.20;99.90;;;;;;5041479;28;20029;-63
2021/06/19 04:09:45;;;;;;;9.88;4.60;;;20.30;99.90;;;;;;5044762;28;20029;-63
2021/06/19 04:12:11;;;;;;;14.73;3.95;;;20.40;99.90;;;;;;5047251;28;20096;-63
2021/06/19 04:14:37;;;;;;;4.85;3.40;;;20.50;99.90;;;;;;5048288;28;20447;-63
2021/06/19 04:17:02;;;;;;;9.88;3.65;;;20.60;99.90;;;;;;5050398;28;20025;-63
2021/06/19 04:19:28;;;;;;;9.48;3.40;;;20.80;99.90;;;;;;5050879;28;20099;-60
2021/06/19 04:21:53;;;;;;;12.32;3.85;;;20.80;99.90;;;;;;5048836;28;20096;-63
2021/06/19 04:24:19;;;;;;;9.98;3.13;;;20.90;99.90;;;;;;5047098;28;20024;-63
2021/06/19 04:26:44;;;;;;;5.55;2.83;;;20.90;99.90;;;;;;5048544;28;20430;-63
2021/06/19 04:29:10;;;;;;;9.20;3.20;;;21.00;99.90;;;;;;5041530;28;20036;-63
2021/06/19 04:31:35;;;;;;;12.90;3.58;;;21.10;99.90;;;;;;5046693;28;20029;-58
2021/06/19 04:34:01;;;;;;;7.55;3.28;;;21.60;99.90;;;;;;5049726;28;20018;-64
2021/06/19 04:36:27;;;;;;;6.07;2.85;;;22.70;99.90;;;;;;5049548;28;20017;-64
2021/06/19 04:38:53;;;;;;;11.10;3.28;;;24.00;99.90;;;;;;5047581;28;20041;-63
2021/06/19 04:41:29;;;;;;;6.32;2.00;;;25.90;97.90;;;;;;5055909;28;20078;-63
2021/06/19 04:46:23;;;;;;;7.53;1.77;;;28.70;92.00;;;;;;5048621;28;21802;-64
2021/06/19 04:48:49;;;;;;;3.50;1.80;;;29.80;87.90;;;;;;5045320;28;20587;-64
2021/06/19 04:51:15;;;;;;;5.32;1.73;;;31.10;82.00;;;;;;5046109;28;20033;-64
2021/06/19 04:53:41;;;;;;;5.15;2.13;;;31.60;77.50;;;;;;5052113;28;20033;-63
2021/06/19 04:56:07;;;;;;;4.82;2.20;;;32.50;73.60;;;;;;5048159;28;20021;-65
2021/06/19 04:58:34;;;;;;;9.88;2.55;;;32.80;71.80;;;;;;5039309;28;20029;-65
2021/06/19 05:01:00;;;;;;;7.00;2.30;;;32.90;68.50;;;;;;5047638;28;20033;-64
2021/06/19 05:03:26;;;;;;;4.85;2.20;;;32.90;67.20;;;;;;5052424;28;20537;-62
2021/06/19 05:05:52;;;;;;;10.27;2.65;;;32.80;67.40;;;;;;5049800;28;20052;-65
2021/06/19 05:08:18;;;;;;;6.25;2.30;;;32.80;66.50;;;;;;5051931;28;20036;-65
2021/06/19 05:10:44;;;;;;;5.75;2.00;;;33.10;66.70;;;;;;5051594;28;20056;-65
2021/06/19 05:13:09;;;;;;;4.30;2.05;;;33.50;65.40;;;;;;5050881;28;20104;-64
2021/06/19 05:15:35;;;;;;;4.63;1.80;;;33.20;64.70;;;;;;5047923;28;20567;-64
2021/06/19 05:18:01;;;;;;;2.85;2.05;;;33.50;63.30;;;;;;5063676;28;20029;-64
2021/06/19 05:20:28;;;;;;;6.40;2.13;;;33.70;62.90;;;;;;5042753;28;20029;-63
2021/06/19 05:22:55;;;;;;;4.20;1.88;;;33.60;62.90;;;;;;5050573;28;20556;-64
2021/06/19 05:25:21;;;;;;;3.60;2.00;;;33.50;62.50;;;;;;5049869;28;20029;-63
2021/06/19 05:27:46;;;;;;;10.18;2.83;;;34.50;61.50;;;;;;5045993;28;20029;-64
2021/06/19 05:30:12;;;;;;;6.63;2.63;;;35.90;60.20;;;;;;5050576;28;20170;-63
2021/06/19 05:32:38;;;;;;;11.75;2.75;;;36.40;60.40;;;;;;5042047;28;20040;-65
2021/06/19 05:35:04;;;;;;;4.97;2.80;;;37.60;57.30;;;;;;5050563;28;20025;-65
2021/06/19 05:37:30;;;;;;;8.07;3.25;;;37.20;57.00;;;;;;5052108;28;20682;-65
2021/06/19 05:39:56;;;;;;;7.40;2.90;;;37.50;56.90;;;;;;5049766;28;20025;-64
2021/06/19 05:42:21;;;;;;;10.52;3.58;;;36.50;58.20;;;;;;5051741;28;20405;-65
2021/06/19 05:44:47;;;;;;;7.18;2.83;;;35.10;58.40;;;;;;5050809;28;20044;-65
2021/06/19 05:47:12;;;;;;;4.45;2.88;;;35.90;58.30;;;;;;5050746;28;20029;-64
2021/06/19 05:49:38;;;;;;;8.18;3.47;;;34.70;59.50;;;;;;5050548;28;20028;-65
2021/06/19 05:52:05;;;;;;;3.95;2.50;;;34.80;59.50;;;;;;5051649;28;20090;-65
2021/06/19 05:54:35;;;;;;;6.30;3.60;;;35.00;58.10;;;;;;5050508;28;20032;-63
2021/06/19 05:57:02;;;;;;;5.60;2.20;;;34.10;59.00;;;;;;5049435;28;20021;-65
2021/06/19 05:59:28;;;;;;;5.13;2.40;;;33.80;60.00;;;;;;5049359;28;20491;-61
2021/06/19 06:01:53;;;;;;;5.78;2.13;;;33.50;59.40;;;;;;5048322;28;20044;-65
2021/06/19 06:04:19;;;;;;;10.57;2.00;;;33.40;60.10;;;;;;5031450;28;20025;-63
2021/06/19 06:06:45;;;;;;;8.05;2.10;;;33.50;60.60;;;;;;5031580;28;20049;-64
2021/06/19 06:09:10;;;;;;;5.00;2.05;;;33.70;58.80;;;;;;5047624;28;20033;-64
2021/06/19 06:11:36;;;;;;;7.28;1.90;;;33.70;59.60;;;;;;5049753;28;20029;-64
2021/06/19 06:14:02;;;;;;;2.33;1.70;;;33.80;59.60;;;;;;5042786;28;20390;-63
2021/06/19 06:16:27;;;;;;;5.50;1.85;;;33.60;59.80;;;;;;5033520;28;20100;-65
2021/06/19 06:18:53;;;;;;;4.63;2.28;;;33.50;58.50;;;;;;5048775;28;20032;-63
2021/06/19 06:21:18;;;;;;;3.38;1.83;;;33.30;58.30;;;;;;5050057;28;20044;-65
2021/06/19 06:23:45;;;;;;;5.55;2.03;;;33.80;58.20;;;;;;5049612;28;20029;-64
2021/06/19 06:26:10;;;;;;;3.55;2.30;;;34.00;57.70;;;;;;5054420;28;20025;-65
2021/06/19 06:28:38;;;;;;;5.18;1.98;;;34.50;57.30;;;;;;5049264;28;20036;-64
2021/06/19 06:31:04;;;;;;;3.50;1.50;;;34.40;55.80;;;;;;5047375;28;20112;-64
2021/06/19 06:33:30;;;;;;;2.50;1.70;;;34.00;56.70;;;;;;5047885;28;20116;-60
2021/06/19 06:35:56;;;;;;;7.05;1.60;;;33.70;58.40;;;;;;5049294;28;20051;-64
2021/06/19 06:38:21;;;;;;;4.90;1.70;;;33.60;57.50;;;;;;5049415;28;20490;-63
2021/06/19 06:40:47;;;;;;;5.22;1.60;;;34.10;57.70;;;;;;5043891;28;20086;-64
2021/06/19 06:43:12;;;;;;;3.92;1.58;;;34.80;58.10;;;;;;5049347;28;20033;-64
2021/06/19 06:45:38;;;;;;;6.60;1.52;;;34.80;55.80;;;;;;5051338;28;20035;-64
2021/06/19 06:48:05;;;;;;;4.85;1.92;;;35.30;56.00;;;;;;5050874;28;20024;-64
2021/06/19 06:50:31;;;;;;;5.75;1.30;;;35.70;55.80;;;;;;5043673;28;20090;-64
2021/06/19 06:52:56;;;;;;;4.07;1.20;;;35.50;54.10;;;;;;5055728;28;20020;-64
2021/06/19 06:55:22;;;;;;;3.20;1.10;;;35.30;54.00;;;;;;5049472;28;20021;-65
2021/06/19 06:57:48;;;;;;;2.42;1.40;;;36.50;53.20;;;;;;5050228;28;20034;-64
2021/06/19 07:00:14;;;;;;;5.60;1.27;;;36.70;53.70;;;;;;5027904;28;20053;-65
2021/06/19 07:02:43;;;;;;;2.35;1.23;;;36.80;52.50;;;;;;5029752;28;20567;-65
2021/06/19 07:05:10;;;;;;;2.22;1.25;;;36.90;51.60;;;;;;5049244;28;20047;-65
2021/06/19 07:07:39;;;;;;;3.95;0.95;;;36.10;53.30;;;;;;5046297;28;20036;-64
2021/06/19 07:10:07;;;;;;;1.45;1.30;;;36.10;52.10;;;;;;5046878;28;20033;-65
2021/06/19 07:12:35;;;;;;;4.15;1.60;;;35.10;52.20;;;;;;5046928;28;20159;-64
2021/06/19 07:15:01;;;;;;;2.50;1.08;;;35.30;53.80;;;;;;5021270;28;20453;-64
2021/06/19 07:17:27;;;;;;;1.95;1.45;;;35.00;53.60;;;;;;5044691;28;20025;-61
2021/06/19 07:19:53;;;;;;;2.17;1.20;;;35.00;54.40;;;;;;5047468;28;20090;-65
2021/06/19 07:22:19;;;;;;;1.65;0.95;;;35.80;53.10;;;;;;5048068;28;20025;-63
2021/06/19 07:24:45;;;;;;;2.70;1.20;;;36.70;52.50;;;;;;5042006;28;20048;-63
2021/06/19 07:27:10;;;;;;;1.98;1.05;;;36.10;52.10;;;;;;5046588;28;20028;-63
2021/06/19 07:29:36;;;;;;;4.18;1.10;;;36.10;50.70;;;;;;5045648;28;20036;-64
2021/06/19 07:32:02;;;;;;;2.40;1.08;;;36.10;50.50;;;;;;5045858;28;20028;-63
2021/06/19 07:34:29;;;;;;;1.58;1.00;;;35.90;50.80;;;;;;5047555;28;20517;-65
2021/06/19 07:36:54;;;;;;;2.95;0.98;;;36.10;51.50;;;;;;5048706;28;20158;-65
2021/06/19 07:39:20;;;;;;;1.15;1.00;;;36.80;50.10;;;;;;5046574;28;20503;-62
2021/06/19 07:41:45;;;;;;;1.30;1.20;;;37.10;49.70;;;;;;5039964;28;20040;-64
2021/06/19 07:44:11;;;;;;;3.95;1.13;;;37.10;50.10;;;;;;5043752;28;20029;-64
2021/06/19 07:46:37;;;;;;;2.03;1.30;;;37.10;49.50;;;;;;5047229;28;20029;-64
2021/06/19 07:49:03;;;;;;;2.13;1.33;;;37.00;49.50;;;;;;5046289;28;20040;-62
2021/06/19 07:51:29;;;;;;;1.25;1.05;;;36.70;48.80;;;;;;5047435;28;20507;-63
2021/06/19 07:53:55;;;;;;;1.00;0.90;;;36.40;49.80;;;;;;5044803;28;20025;-65
2021/06/19 07:56:20;;;;;;;1.15;0.93;;;36.20;49.30;;;;;;5046596;28;20047;-65
2021/06/19 07:58:46;;;;;;;1.13;1.00;;;37.10;48.20;;;;;;5046932;28;20090;-64
2021/06/19 08:01:11;;;;;;;4.65;1.30;;;36.90;48.00;;;;;;5037637;28;20523;-64
2021/06/19 08:03:37;;;;;;;1.60;0.90;;;37.50;49.50;;;;;;5041537;28;20036;-65
2021/06/19 08:06:03;;;;;;;1.27;1.17;;;37.30;47.70;;;;;;5048208;28;20505;-64
2021/06/19 08:08:28;;;;;;;1.60;1.20;;;36.40;48.80;;;;;;5045952;28;20079;-65
2021/06/19 08:10:54;;;;;;;2.92;1.13;;;35.40;48.40;;;;;;5044084;28;20032;-65
2021/06/19 08:13:20;;;;;;;4.80;1.70;;;35.40;49.90;;;;;;5044240;28;20099;-65
2021/06/19 08:15:45;;;;;;;2.33;1.30;;;35.60;50.00;;;;;;5048844;28;20037;-65
2021/06/19 08:18:11;;;;;;;2.88;1.30;;;35.80;49.30;;;;;;5043271;28;20374;-64
2021/06/19 08:20:37;;;;;;;4.65;1.17;;;36.10;49.20;;;;;;5049950;28;20466;-64
2021/06/19 08:23:04;;;;;;;3.92;1.25;;;36.30;49.60;;;;;;5052664;28;20036;-65
2021/06/19 08:25:30;;;;;;;2.08;1.25;;;36.70;48.40;;;;;;5065465;28;20067;-61
2021/06/19 08:27:56;;;;;;;4.43;1.15;;;36.50;49.30;;;;;;5052517;28;20489;-62
2021/06/19 08:30:22;;;;;;;1.30;1.10;;;36.70;48.40;;;;;;5057054;28;20079;-62
2021/06/19 08:32:48;;;;;;;1.90;0.93;;;37.10;48.00;;;;;;5057700;28;20029;-62
2021/06/19 08:35:13;;;;;;;1.55;1.10;;;36.70;48.60;;;;;;5059399;28;20025;-62
2021/06/19 08:37:39;;;;;;;2.53;1.30;;;36.40;48.30;;;;;;5069191;28;20039;-62
2021/06/19 08:40:06;;;;;;;1.92;0.98;;;37.20;48.80;;;;;;5064020;28;20033;-64
2021/06/19 08:42:32;;;;;;;1.65;1.05;;;37.60;48.00;;;;;;5055134;28;20363;-64
2021/06/19 08:44:58;;;;;;;4.75;1.30;;;36.40;48.00;;;;;;5064485;28;20028;-64
2021/06/19 08:47:25;;;;;;;2.67;1.00;;;36.80;47.80;;;;;;5063968;28;20025;-64
2021/06/19 08:49:52;;;;;;;1.42;0.90;;;36.20;49.60;;;;;;5069902;28;20074;-65
2021/06/19 08:52:18;;;;;;;2.00;0.93;;;36.10;49.40;;;;;;5057376;28;20044;-64
2021/06/19 08:54:43;;;;;;;3.70;1.30;;;36.20;48.40;;;;;;5063758;28;20025;-64
2021/06/19 08:57:11;;;;;;;2.75;1.27;;;35.90;48.60;;;;;;5061075;28;20109;-62
2021/06/19 08:59:38;;;;;;;3.00;1.00;;;35.80;47.90;;;;;;5059384;28;20025;-61
2021/06/19 09:02:05;;;;;;;2.00;1.00;;;35.70;48.80;;;;;;5044454;28;20045;-64
2021/06/19 09:04:53;;;;;;;6.35;1.30;;;35.90;49.10;;;;;;5054645;28;20654;-64
2021/06/19 09:07:37;;;;;;;2.05;1.23;;;36.30;48.40;;;;;;5052609;28;20380;-65
2021/06/19 09:10:25;;;;;;;2.20;1.10;;;35.30;47.90;;;;;;5053464;28;20025;-65
2021/06/19 09:13:05;;;;;;;1.60;1.20;;;36.10;49.00;;;;;;5063438;28;20032;-64
2021/06/19 09:15:37;;;;;;;5.85;1.25;;;36.50;49.30;;;;;;5063971;28;20021;-63
2021/06/19 09:18:23;;;;;;;0.90;0.88;;;37.50;48.60;;;;;;5058849;28;20024;-64
2021/06/19 09:20:57;;;;;;;1.17;1.00;;;37.80;48.10;;;;;;5069337;28;20028;-64
2021/06/19 09:23:31;;;;;;;3.70;1.10;;;38.30;46.80;;;;;;5061746;28;20037;-65
2021/06/19 09:26:13;;;;;;;1.67;1.10;;;37.20;46.20;;;;;;5071521;28;20025;-65
2021/06/19 09:28:57;;;;;;;2.22;1.08;;;37.20;46.70;;;;;;5059740;28;20044;-65
2021/06/19 09:31:38;;;;;;;2.53;1.27;;;36.80;45.80;;;;;;5059934;28;20387;-65
2021/06/19 09:34:10;;;;;;;1.65;1.25;;;38.00;45.90;;;;;;5050013;28;20092;-65
2021/06/19 09:36:43;;;;;;;2.28;1.10;;;37.20;46.90;;;;;;5063655;28;20574;-65
2021/06/19 09:39:10;;;;;;;2.25;1.20;;;36.30;47.40;;;;;;5051121;28;20512;-65
2021/06/19 09:41:44;;;;;;;2.78;1.02;;;37.20;48.40;;;;;;5055831;28;20163;-64
2021/06/19 09:44:10;;;;;;;2.80;0.88;;;37.60;47.20;;;;;;5054481;28;20126;-64
2021/06/19 09:46:35;;;;;;;0.82;0.80;;;37.80;46.80;;;;;;5065905;28;20063;-63
2021/06/19 09:49:17;;;;;;;1.63;1.00;;;37.30;47.60;;;;;;5060547;28;20107;-65
2021/06/19 09:51:48;;;;;;;1.88;0.95;;;38.20;46.80;;;;;;5056336;28;20028;-65
2021/06/19 09:54:14;;;;;;;1.63;1.00;;;38.40;46.10;;;;;;5064233;28;20063;-65
2021/06/19 09:56:59;;;;;;;5.28;1.10;;;38.20;45.30;;;;;;5054901;28;20597;-65
2021/06/19 09:59:26;;;;;;;3.40;1.20;;;37.40;46.50;;;;;;5053018;28;20367;-64
2021/06/19 10:01:52;;;;;;;1.58;0.90;;;37.90;46.90;;;;;;5034725;28;20041;-64
2021/06/19 10:04:23;;;;;;;3.17;1.20;;;37.30;46.50;;;;;;5032283;28;20021;-65
2021/06/19 10:06:50;;;;;;;1.30;1.10;;;37.40;45.80;;;;;;5048808;28;20552;-63
2021/06/19 10:09:16;;;;;;;2.30;1.10;;;36.70;47.40;;;;;;5047711;28;20025;-64
2021/06/19 10:11:43;;;;;;;2.25;0.80;;;36.80;46.90;;;;;;5052033;28;20509;-63
2021/06/19 10:14:16;;;;;;;1.77;1.30;;;34.90;48.40;;;;;;5051214;28;20020;-62
2021/06/19 10:16:43;;;;;;;1.00;0.90;;;33.50;50.00;;;;;;5044208;28;20477;-63
2021/06/19 10:19:09;;;;;;;1.88;0.90;;;33.10;51.80;;;;;;5050232;28;20095;-63
2021/06/19 10:21:35;;;;;;;2.70;1.05;;;33.40;53.20;;;;;;5033278;28;20025;-64
2021/06/19 10:24:01;;;;;;;1.98;1.13;;;33.70;51.50;;;;;;5051093;28;20591;-62
2021/06/19 10:26:26;;;;;;;6.72;0.80;;;33.70;50.30;;;;;;5043741;28;20036;-62
2021/06/19 10:28:57;;;;;;;1.75;1.05;;;33.80;50.80;;;;;;5049917;28;20037;-63
2021/06/19 10:31:24;;;;;;;3.90;1.35;;;33.60;52.20;;;;;;5042928;28;20025;-63
2021/06/19 10:33:49;;;;;;;3.15;1.00;;;33.20;51.90;;;;;;5049757;28;20010;-64
2021/06/19 10:36:16;;;;;;;1.17;0.93;;;33.20;51.20;;;;;;5045593;28;20036;-64
2021/06/19 10:38:56;;;;;;;1.73;1.00;;;33.40;51.00;;;;;;5052125;28;20025;-63
2021/06/19 10:41:43;;;;;;;1.17;0.98;;;33.00;52.20;;;;;;5048816;28;20163;-62
2021/06/19 10:44:09;;;;;;;1.60;1.00;;;32.80;55.30;;;;;;5046971;28;20013;-63
2021/06/19 10:46:40;;;;;;;6.07;1.30;;;33.00;52.50;;;;;;5048879;28;20044;-61
2021/06/19 10:49:18;;;;;;;1.10;0.82;;;32.90;52.70;;;;;;5045804;28;20021;-63
2021/06/19 10:51:43;;;;;;;4.35;1.50;;;32.70;54.50;;;;;;5041473;28;20048;-62
2021/06/19 10:54:13;;;;;;;3.85;1.35;;;32.60;54.40;;;;;;5043378;28;20032;-63
2021/06/19 10:56:52;;;;;;;2.55;0.95;;;32.90;52.50;;;;;;5042082;28;20489;-62
2021/06/19 10:59:22;;;;;;;3.45;1.52;;;33.00;53.10;;;;;;5043088;28;20029;-63
2021/06/19 11:01:50;;;;;;;4.75;1.35;;;33.00;53.30;;;;;;5028352;28;20438;-63
2021/06/19 11:04:38;;;;;;;4.10;1.20;;;32.80;52.80;;;;;;5046447;28;20025;-61
2021/06/19 11:07:19;;;;;;;4.63;1.00;;;32.30;53.20;;;;;;5046673;28;20194;-63
2021/06/19 11:09:48;;;;;;;2.90;1.27;;;32.30;54.10;;;;;;5050794;28;20098;-63
2021/06/19 11:12:34;;;;;;;1.90;1.40;;;32.30;54.30;;;;;;5048136;28;20100;-63
2021/06/19 11:15:05;;;;;;;2.90;1.42;;;32.40;53.40;;;;;;5047616;28;20037;-62
2021/06/19 11:17:31;;;;;;;1.73;1.23;;;32.30;53.70;;;;;;5026207;28;20048;-61
2021/06/19 11:20:02;;;;;;;1.30;1.20;;;32.10;53.50;;;;;;5045781;28;20538;-62
2021/06/19 11:22:40;;;;;;;2.35;1.20;;;32.10;55.60;;;;;;5037945;28;20545;-61
2021/06/19 11:25:36;;;;;;;2.25;1.38;;;32.10;54.90;;;;;;5045605;28;20031;-64
2021/06/19 11:28:17;;;;;;;1.75;0.95;;;31.80;54.90;;;;;;5039848;28;20128;-63
2021/06/19 11:30:45;;;;;;;1.95;1.33;;;32.00;55.50;;;;;;5040157;28;20040;-63
2021/06/19 11:33:19;;;;;;;3.35;1.10;;;32.20;56.00;;;;;;5040740;28;20032;-63
2021/06/19 11:36:00;;;;;;;4.03;1.27;;;32.40;54.90;;;;;;5039552;28;20055;-63
2021/06/19 11:38:47;;;;;;;2.22;1.00;;;32.50;54.10;;;;;;5038284;28;20043;-63
2021/06/19 11:41:16;;;;;;;3.50;1.20;;;31.90;53.30;;;;;;5042593;28;20025;-63
2021/06/19 11:43:43;;;;;;;2.80;1.27;;;32.20;53.30;;;;;;5030751;28;20075;-64
2021/06/19 11:46:09;;;;;;;2.40;1.10;;;32.20;54.90;;;;;;5048640;28;20437;-63
2021/06/19 11:48:51;;;;;;;3.78;1.20;;;32.10;53.70;;;;;;5048071;28;20033;-63
2021/06/19 11:51:21;;;;;;;1.57;1.07;;;32.20;54.70;;;;;;5043209;28;20437;-64
2021/06/19 11:53:47;;;;;;;2.05;1.02;;;32.80;53.50;;;;;;5047954;28;20275;-62
2021/06/19 11:56:13;;;;;;;2.78;1.67;;;33.10;53.00;;;;;;5049689;28;20021;-62
2021/06/19 11:58:48;;;;;;;1.27;1.02;;;33.00;52.20;;;;;;5058277;28;20025;-63
2021/06/19 12:01:16;;;;;;;1.27;1.17;;;32.80;54.60;;;;;;5041663;28;20045;-64
2021/06/19 12:03:42;;;;;;;1.55;1.20;;;32.90;54.20;;;;;;5050599;28;20047;-63
2021/06/19 12:06:08;;;;;;;3.30;1.30;;;32.80;53.40;;;;;;5054958;28;20052;-63
2021/06/19 12:08:34;;;;;;;5.38;1.40;;;32.90;53.60;;;;;;5064727;28;20056;-62
2021/06/19 12:11:00;;;;;;;5.10;1.30;;;32.90;52.60;;;;;;5054378;28;20067;-63
2021/06/19 12:13:40;;;;;;;7.13;1.60;;;32.90;54.30;;;;;;5056352;28;20024;-63
2021/06/19 12:16:07;;;;;;;4.18;1.55;;;32.90;53.30;;;;;;5054627;28;20027;-63
2021/06/19 12:18:33;;;;;;;3.67;1.40;;;32.50;52.60;;;;;;5056065;28;20041;-63
2021/06/19 12:21:12;;;;;;;2.10;1.02;;;32.50;53.00;;;;;;5059435;28;20089;-63
2021/06/19 12:23:45;;;;;;;3.33;1.38;;;32.60;54.20;;;;;;5044424;28;20028;-63
2021/06/19 12:26:16;;;;;;;6.75;1.42;;;32.40;52.80;;;;;;5049666;28;20482;-62
2021/06/19 12:28:47;;;;;;;3.65;1.20;;;32.30;54.90;;;;;;5035056;28;20620;-63
2021/06/19 12:31:14;;;;;;;4.50;1.55;;;31.90;57.40;;;;;;5045534;28;20021;-63
2021/06/19 12:33:41;;;;;;;2.70;1.48;;;31.90;54.80;;;;;;5053239;28;20025;-64
2021/06/19 12:36:09;;;;;;;2.65;1.45;;;31.80;57.00;;;;;;5060189;28;20023;-63
2021/06/19 12:38:35;;;;;;;3.30;1.30;;;31.60;54.80;;;;;;5058169;28;20067;-64
2021/06/19 12:41:04;;;;;;;3.50;1.23;;;31.70;57.70;;;;;;5059297;28;20028;-64
2021/06/19 12:43:29;;;;;;;4.05;1.40;;;31.90;56.00;;;;;;5049346;28;20462;-63
2021/06/19 12:45:55;;;;;;;2.88;1.60;;;31.70;56.40;;;;;;5028371;28;20052;-63
2021/06/19 12:48:24;;;;;;;1.90;1.38;;;31.50;57.40;;;;;;5049017;28;20024;-63
2021/06/19 12:50:52;;;;;;;5.93;1.88;;;31.20;56.30;;;;;;5052981;28;20557;-63